createdAt,value
2022-12-22T00:02:30.318Z,98141.56
2022-12-22T00:05:15.823Z,98135.00
2022-12-22T00:08:00.916Z,98130.25
2022-12-22T00:10:46.309Z,98131.09
2022-12-22T00:13:33.721Z,98123.06
2022-12-22T00:16:19.041Z,98124.84
2022-12-22T00:19:03.963Z,98114.44
2022-12-22T00:21:49.794Z,98111.94
2022-12-22T00:24:34.992Z,98116.50
2022-12-22T00:27:20.247Z,98112.50
2022-12-22T00:30:05.413Z,98108.09
2022-12-22T00:32:53.642Z,98103.25
2022-12-22T00:35:42.783Z,98097.41
2022-12-22T00:38:34.265Z,98103.13
2022-12-22T00:41:19.689Z,98104.81
2022-12-22T00:44:04.838Z,98092.47
2022-12-22T00:46:51.832Z,98088.84
2022-12-22T00:49:37.324Z,98086.81
2022-12-22T00:52:23.179Z,98087.03
2022-12-22T00:55:14.240Z,98079.13
2022-12-22T00:58:01.659Z,98074.34
2022-12-22T01:00:47.765Z,98073.75
2022-12-22T01:03:33.324Z,98071.72
2022-12-22T01:06:20.019Z,98064.09
2022-12-22T01:09:05.767Z,98061.84
2022-12-22T01:11:52.594Z,98070.47
2022-12-22T01:14:37.786Z,98066.59
2022-12-22T01:17:23.123Z,98067.03
2022-12-22T01:20:08.223Z,98057.84
2022-12-22T01:22:53.667Z,98070.91
2022-12-22T01:25:39.179Z,98051.94
2022-12-22T01:28:25.127Z,98053.78
2022-12-22T01:31:09.983Z,98045.34
2022-12-22T01:33:55.111Z,98045.69
2022-12-22T01:36:40.148Z,98038.72
2022-12-22T01:39:24.898Z,98030.69
2022-12-22T01:42:10.141Z,98027.31
2022-12-22T01:44:55.523Z,98021.22
2022-12-22T01:47:43.860Z,98014.56
2022-12-22T01:50:28.973Z,98017.50
2022-12-22T01:53:19.625Z,98005.69
2022-12-22T01:56:06.141Z,98014.00
2022-12-22T01:58:57.447Z,98003.19
2022-12-22T02:01:42.831Z,98006.41
2022-12-22T02:04:28.467Z,98008.44
2022-12-22T02:07:23.125Z,97994.31
2022-12-22T02:10:21.698Z,97994.84
2022-12-22T02:13:43.733Z,97985.13
2022-12-22T02:16:45.058Z,97970.69
2022-12-22T02:19:52.141Z,97966.53
2022-12-22T02:23:06.534Z,97967.09
2022-12-22T02:26:09.724Z,97960.59
2022-12-22T02:28:55.625Z,97968.09
2022-12-22T02:31:40.986Z,97963.78
2022-12-22T02:34:33.129Z,97966.44
2022-12-22T02:37:36.253Z,97959.47
2022-12-22T02:40:41.610Z,97954.34
2022-12-22T02:43:37.428Z,97947.97
2022-12-22T02:46:48.383Z,97953.22
2022-12-22T02:49:43.593Z,97947.69
2022-12-22T02:52:37.859Z,97946.03
2022-12-22T02:55:24.316Z,97937.69
2022-12-22T02:58:10.500Z,97932.41
2022-12-22T03:00:56.646Z,97930.03
2022-12-22T03:03:42.324Z,97922.13
2022-12-22T03:06:27.779Z,97916.59
2022-12-22T03:09:13.187Z,97914.63
2022-12-22T03:11:58.461Z,97907.97
2022-12-22T03:14:43.845Z,97916.28
2022-12-22T03:17:29.154Z,97902.13
2022-12-22T03:20:14.267Z,97899.78
2022-12-22T03:22:59.321Z,97895.91
2022-12-22T03:25:44.100Z,97893.25
2022-12-22T03:28:11.518Z,97880.47
2022-12-22T03:30:39.127Z,97881.59
2022-12-22T03:33:06.265Z,97878.81
2022-12-22T03:35:32.908Z,97868.81
2022-12-22T03:38:03.500Z,97885.88
2022-12-22T03:40:33.333Z,97870.75
2022-12-22T03:43:18.143Z,97878.81
2022-12-22T03:46:03.520Z,97868.00
2022-12-22T03:48:30.214Z,97856.19
2022-12-22T03:50:56.803Z,97854.50
2022-12-22T03:53:23.425Z,97859.78
2022-12-22T03:55:50.035Z,97845.75
2022-12-22T03:58:16.683Z,97839.50
2022-12-22T04:00:43.618Z,97828.25
2022-12-22T04:03:10.453Z,97820.19
2022-12-22T04:05:37.227Z,97821.03
2022-12-22T04:08:03.996Z,97822.28
2022-12-22T04:10:49.074Z,97813.53
2022-12-22T04:13:15.685Z,97822.00
2022-12-22T04:15:42.565Z,97820.75
2022-12-22T04:18:09.232Z,97820.59
2022-12-22T04:20:35.876Z,97818.50
2022-12-22T04:23:02.722Z,97818.22
2022-12-22T04:25:29.722Z,97818.53
2022-12-22T04:27:56.333Z,97817.16
2022-12-22T04:30:23.076Z,97809.50
2022-12-22T04:32:50.034Z,97798.66
2022-12-22T04:35:16.757Z,97794.78
2022-12-22T04:37:43.395Z,97798.13
2022-12-22T04:40:10.155Z,97786.03
2022-12-22T04:42:36.839Z,97785.19
2022-12-22T04:45:03.776Z,97785.31
2022-12-22T04:47:30.363Z,97783.53
2022-12-22T04:49:57.075Z,97784.09
2022-12-22T04:52:23.707Z,97776.00
2022-12-22T04:54:50.349Z,97779.34
2022-12-22T04:57:16.938Z,97776.16
2022-12-22T04:59:43.669Z,97774.94
2022-12-22T05:02:10.591Z,97772.56
2022-12-22T05:04:37.354Z,97774.94
2022-12-22T05:07:04.795Z,97763.81
2022-12-22T05:09:31.401Z,97761.56
2022-12-22T05:11:58.014Z,97762.84
2022-12-22T05:14:24.644Z,97758.53
2022-12-22T05:16:51.332Z,97756.19
2022-12-22T05:19:18.181Z,97754.94
2022-12-22T05:21:45.675Z,97744.94
2022-12-22T05:24:12.803Z,97741.31
2022-12-22T05:26:39.453Z,97743.97
2022-12-22T05:29:06.304Z,97739.94
2022-12-22T05:31:32.951Z,97733.56
2022-12-22T05:33:59.584Z,97732.19
2022-12-22T05:36:26.203Z,97736.06
2022-12-22T05:38:52.795Z,97723.81
2022-12-22T05:41:19.395Z,97718.56
2022-12-22T05:43:46.036Z,97714.69
2022-12-22T05:46:12.698Z,97711.91
2022-12-22T05:48:40.365Z,97708.25
2022-12-22T05:51:10.758Z,97708.00
2022-12-22T05:53:38.345Z,97708.97
2022-12-22T05:56:05.637Z,97706.06
2022-12-22T05:58:33.135Z,97700.47
2022-12-22T06:01:00.645Z,97697.56
2022-12-22T06:03:28.790Z,97693.78
2022-12-22T06:05:56.031Z,97694.38
2022-12-22T06:08:23.475Z,97682.41
2022-12-22T06:10:50.121Z,97677.69
2022-12-22T06:13:17.107Z,97680.19
2022-12-22T06:15:44.137Z,97680.19
2022-12-22T06:18:10.887Z,97673.81
2022-12-22T06:20:37.496Z,97673.81
2022-12-22T06:23:04.119Z,97665.16
2022-12-22T06:25:30.841Z,97670.44
2022-12-22T06:27:57.421Z,97662.25
2022-12-22T06:30:30.964Z,97671.25
2022-12-22T06:33:00.793Z,97665.72
2022-12-22T06:35:27.512Z,97660.03
2022-12-22T06:37:54.144Z,97663.34
2022-12-22T06:40:20.773Z,97653.50
2022-12-22T06:43:08.759Z,97655.84
2022-12-22T06:45:38.340Z,97653.78
2022-12-22T06:48:05.330Z,97655.44
2022-12-22T06:50:31.960Z,97651.81
2022-12-22T06:52:58.593Z,97654.47
2022-12-22T06:55:25.237Z,97665.00
2022-12-22T06:57:52.076Z,97653.22
2022-12-22T07:00:19.037Z,97657.09
2022-12-22T07:02:45.796Z,97650.41
2022-12-22T07:05:12.909Z,97651.53
2022-12-22T07:07:39.495Z,97653.50
2022-12-22T07:10:06.744Z,97651.53
2022-12-22T07:12:33.331Z,97657.09
2022-12-22T07:14:59.998Z,97659.47
2022-12-22T07:17:26.716Z,97653.22
2022-12-22T07:19:53.330Z,97657.78
2022-12-22T07:22:25.636Z,97654.19
2022-12-22T07:24:56.090Z,97653.88
2022-12-22T07:27:22.738Z,97645.69
2022-12-22T07:29:49.443Z,97639.44
2022-12-22T07:32:16.095Z,97644.28
2022-12-22T07:34:42.707Z,97639.00
2022-12-22T07:37:09.469Z,97639.56
2022-12-22T07:39:36.064Z,97642.34
2022-12-22T07:42:21.286Z,97640.09
2022-12-22T07:44:47.907Z,97639.81
2022-12-22T07:47:14.541Z,97640.91
2022-12-22T07:49:59.666Z,97639.22
2022-12-22T07:52:26.938Z,97634.78
2022-12-22T07:54:53.575Z,97640.31
2022-12-22T07:57:20.147Z,97627.09
2022-12-22T07:59:46.750Z,97629.75
2022-12-22T08:02:13.572Z,97641.44
2022-12-22T08:04:40.298Z,97623.78
2022-12-22T08:07:06.983Z,97633.06
2022-12-22T08:09:33.611Z,97628.59
2022-12-22T08:12:00.216Z,97623.03
2022-12-22T08:14:26.838Z,97623.03
2022-12-22T08:16:53.619Z,97608.03
2022-12-22T08:19:20.498Z,97613.31
2022-12-22T08:21:52.879Z,97616.94
2022-12-22T08:24:20.208Z,97617.63
2022-12-22T08:26:49.825Z,97612.88
2022-12-22T08:29:39.470Z,97611.75
2022-12-22T08:32:06.543Z,97613.38
2022-12-22T08:34:33.386Z,97608.50
2022-12-22T08:37:02.940Z,97601.09
2022-12-22T08:39:35.064Z,97602.09
2022-12-22T08:42:05.891Z,97597.34
2022-12-22T08:44:32.520Z,97599.00
2022-12-22T08:46:59.968Z,97604.28
2022-12-22T08:49:26.868Z,97598.72
2022-12-22T08:51:53.824Z,97592.75
2022-12-22T08:54:20.970Z,97596.78
2022-12-22T08:56:47.804Z,97596.78
2022-12-22T08:59:15.905Z,97601.75
2022-12-22T09:01:47.998Z,97599.78
2022-12-22T09:04:16.283Z,97602.28
2022-12-22T09:06:43.103Z,97596.00
2022-12-22T09:09:11.338Z,97600.31
2022-12-22T09:11:39.803Z,97593.59
2022-12-22T09:14:08.129Z,97588.03
2022-12-22T09:16:35.219Z,97598.59
2022-12-22T09:19:02.481Z,97589.38
2022-12-22T09:21:30.137Z,97589.38
2022-12-22T09:23:57.327Z,97587.41
2022-12-22T09:26:26.419Z,97587.78
2022-12-22T09:28:53.645Z,97582.72
2022-12-22T09:31:22.157Z,97575.97
2022-12-22T09:33:49.121Z,97573.88
2022-12-22T09:36:24.597Z,97573.72
2022-12-22T09:38:51.670Z,97579.06
2022-12-22T09:41:22.375Z,97584.06
2022-12-22T09:43:49.108Z,97575.13
2022-12-22T09:46:24.246Z,97578.50
2022-12-22T09:48:51.920Z,97570.25
2022-12-22T09:51:26.119Z,97576.91
2022-12-22T09:54:01.276Z,97573.78
2022-12-22T09:56:29.469Z,97579.59
2022-12-22T09:58:57.060Z,97577.28
2022-12-22T10:01:30.836Z,97584.88
2022-12-22T10:04:36.692Z,97589.53
2022-12-22T10:07:26.804Z,97594.34
2022-12-22T10:09:53.564Z,97590.72
2022-12-22T10:12:22.965Z,97591.00
2022-12-22T10:14:50.631Z,97591.47
2022-12-22T10:17:31.594Z,97583.03
2022-12-22T10:20:10.789Z,97581.03
2022-12-22T10:22:49.300Z,97582.22
2022-12-22T10:25:35.787Z,97578.88
2022-12-22T10:28:22.654Z,97585.28
2022-12-22T10:30:49.260Z,97578.88
2022-12-22T10:33:18.883Z,97594.44
2022-12-22T10:35:58.880Z,97588.16
2022-12-22T10:38:31.646Z,97594.44
2022-12-22T10:41:19.812Z,97589.16
2022-12-22T10:43:52.907Z,97606.66
2022-12-22T10:46:29.084Z,97600.03
2022-12-22T10:49:28.722Z,97600.03
2022-12-22T10:51:57.392Z,97601.59
2022-12-22T10:54:26.549Z,97610.72
2022-12-22T10:57:18.755Z,97604.59
2022-12-22T11:00:34.918Z,97603.09
2022-12-22T11:03:04.670Z,97613.00
2022-12-22T11:05:33.179Z,97611.03
2022-12-22T11:08:12.626Z,97621.63
2022-12-22T11:10:43.916Z,97623.59
2022-12-22T11:13:19.676Z,97628.03
2022-12-22T11:16:12.621Z,97637.16
2022-12-22T11:18:57.400Z,97647.09
2022-12-22T11:21:42.408Z,97650.72
2022-12-22T11:24:12.067Z,97653.03
2022-12-22T11:26:38.615Z,97661.16
2022-12-22T11:29:42.051Z,97656.72
2022-12-22T11:32:43.970Z,97670.53
2022-12-22T11:35:36.704Z,97667.91
2022-12-22T11:38:35.632Z,97673.19
2022-12-22T11:41:29.452Z,97676.50
2022-12-22T11:44:18.460Z,97688.44
2022-12-22T11:47:03.939Z,97688.44
2022-12-22T11:51:02.326Z,97688.44
2022-12-22T11:53:12.348Z,97691.13
2022-12-22T11:56:03.579Z,97692.81
2022-12-22T11:59:26.268Z,97692.59
2022-12-22T12:02:35.781Z,97694.53
2022-12-22T12:05:08.244Z,97713.53
2022-12-22T12:07:58.142Z,97711.88
2022-12-22T12:10:32.006Z,97719.38
2022-12-22T12:13:01.579Z,97722.84
2022-12-22T12:15:32.593Z,97727.31
2022-12-22T12:18:30.191Z,97734.69
2022-12-22T12:21:26.217Z,97736.97
2022-12-22T12:24:26.405Z,97747.03
2022-12-22T12:26:58.901Z,97757.06
2022-12-22T12:29:27.354Z,97757.66
2022-12-22T12:32:10.627Z,97759.03
2022-12-22T12:34:43.071Z,97771.59
2022-12-22T12:37:26.604Z,97780.13
2022-12-22T12:40:05.841Z,97785.28
2022-12-22T12:42:45.417Z,97792.19
2022-12-22T12:45:35.767Z,97793.94
2022-12-22T12:48:20.924Z,97797.56
2022-12-22T12:50:57.966Z,97807.81
2022-12-22T12:53:26.416Z,97819.56
2022-12-22T12:55:53.119Z,97824.00
2022-12-22T12:58:40.547Z,97828.97
2022-12-22T13:01:30.318Z,97836.53
2022-12-22T13:04:05.407Z,97839.63
2022-12-22T13:06:50.625Z,97848.38
2022-12-22T13:09:50.090Z,97849.38
2022-12-22T13:12:51.128Z,97849.09
2022-12-22T13:15:31.712Z,97868.56
2022-12-22T13:17:59.428Z,97861.03
2022-12-22T13:20:33.953Z,97878.31
2022-12-22T13:23:03.533Z,97879.81
2022-12-22T13:25:42.591Z,97886.09
2022-12-22T13:28:16.272Z,97892.06
2022-12-22T13:30:51.814Z,97900.00
2022-12-22T13:33:22.871Z,97895.69
2022-12-22T13:35:56.577Z,97900.56
2022-12-22T13:38:32.161Z,97914.78
2022-12-22T13:41:02.799Z,97915.34
2022-12-22T13:43:32.317Z,97914.19
2022-12-22T13:46:01.061Z,97920.06
2022-12-22T13:48:46.325Z,97922.03
2022-12-22T13:51:22.706Z,97928.69
2022-12-22T13:54:11.990Z,97929.38
2022-12-22T13:56:48.710Z,97933.41
2022-12-22T13:59:36.737Z,97927.00
2022-12-22T14:02:23.757Z,97926.31
2022-12-22T14:05:10.208Z,97935.06
2022-12-22T14:07:38.510Z,97935.06
2022-12-22T14:10:05.897Z,97937.00
2022-12-22T14:12:44.651Z,97931.44
2022-12-22T14:15:20.117Z,97925.59
2022-12-22T14:17:53.941Z,97934.09
2022-12-22T14:20:36.715Z,97931.72
2022-12-22T14:23:08.866Z,97936.19
2022-12-22T14:25:41.979Z,97931.06
2022-12-22T14:28:47.589Z,97933.13
2022-12-22T14:31:14.336Z,97936.81
2022-12-22T14:33:54.627Z,97941.38
2022-12-22T14:36:26.748Z,97940.69
2022-12-22T14:39:02.318Z,97954.91
2022-12-22T14:41:51.885Z,97962.41
2022-12-22T14:44:24.057Z,97961.75
2022-12-22T14:47:18.002Z,97969.09
2022-12-22T14:50:16.707Z,97970.25
2022-12-22T14:52:51.673Z,97982.22
2022-12-22T14:55:41.326Z,97988.59
2022-12-22T14:58:13.883Z,97989.72
2022-12-22T15:00:46.029Z,98000.28
2022-12-22T15:03:32.985Z,98002.13
2022-12-22T15:06:38.644Z,98010.72
2022-12-22T15:09:06.612Z,98008.38
2022-12-22T15:11:35.389Z,98021.41
2022-12-22T15:14:02.977Z,98024.22
2022-12-22T15:16:29.846Z,98022.56
2022-12-22T15:18:57.233Z,98028.94
2022-12-22T15:21:24.333Z,98032.00
2022-12-22T15:23:51.049Z,98029.78
2022-12-22T15:26:17.669Z,98032.41
2022-12-22T15:28:44.346Z,98027.84
2022-12-22T15:31:16.460Z,98030.47
2022-12-22T15:33:44.976Z,98043.69
2022-12-22T15:36:13.993Z,98045.91
2022-12-22T15:38:41.310Z,98042.56
2022-12-22T15:41:08.280Z,98056.19
2022-12-22T15:46:22.774Z,98055.06
2022-12-22T15:48:49.573Z,98054.53
2022-12-22T15:51:28.001Z,98063.00
2022-12-22T15:53:57.256Z,98059.53
2022-12-22T15:56:27.136Z,98074.78
2022-12-22T15:58:54.320Z,98071.75
2022-12-22T16:01:20.957Z,98079.25
2022-12-22T16:03:47.819Z,98084.78
2022-12-22T16:06:16.858Z,98084.78
2022-12-22T16:08:51.157Z,98083.66
2022-12-22T16:11:18.776Z,98086.19
2022-12-22T16:13:46.405Z,98086.16
2022-12-22T16:16:13.158Z,98099.19
2022-12-22T16:18:39.915Z,98095.00
2022-12-22T16:21:31.205Z,98090.56
2022-12-22T16:23:58.745Z,98090.16
2022-12-22T16:26:25.407Z,98090.41
2022-12-22T16:28:52.401Z,98089.44
2022-12-22T16:31:21.907Z,98081.94
2022-12-22T16:33:48.969Z,98091.63
2022-12-22T16:36:15.813Z,98083.97
2022-12-22T16:38:43.184Z,98091.34
2022-12-22T16:41:24.562Z,98096.31
2022-12-22T16:43:59.469Z,98104.88
2022-12-22T16:46:30.564Z,98096.25
2022-12-22T16:49:01.107Z,98095.81
2022-12-22T16:51:34.221Z,98101.09
2022-12-22T16:54:01.956Z,98101.22
2022-12-22T16:56:31.578Z,98096.03
2022-12-22T16:58:58.594Z,98098.78
2022-12-22T17:01:36.376Z,98103.69
2022-12-22T17:04:15.567Z,98102.84
2022-12-22T17:06:43.127Z,98095.91
2022-12-22T17:09:24.778Z,98101.19
2022-12-22T17:11:54.308Z,98094.78
2022-12-22T17:14:31.596Z,98095.06
2022-12-22T17:17:01.189Z,98090.63
2022-12-22T17:19:27.861Z,98092.31
2022-12-22T17:21:56.720Z,98092.81
2022-12-22T17:24:28.286Z,98088.50
2022-12-22T17:26:59.372Z,98090.03
2022-12-22T17:29:26.089Z,98093.25
2022-12-22T17:31:56.504Z,98095.78
2022-12-22T17:34:23.882Z,98088.69
2022-12-22T17:36:51.169Z,98086.88
2022-12-22T17:39:21.791Z,98078.16
2022-12-22T17:41:56.213Z,98077.00
2022-12-22T17:44:25.551Z,98072.69
2022-12-22T17:46:52.324Z,98073.53
2022-12-22T17:49:22.339Z,98067.66
2022-12-22T17:51:49.513Z,98062.38
2022-12-22T17:54:26.362Z,98061.72
2022-12-22T17:57:03.817Z,98061.72
2022-12-22T17:59:31.001Z,98057.13
2022-12-22T18:01:57.967Z,98061.56
2022-12-22T18:04:24.675Z,98065.31
2022-12-22T18:06:51.605Z,98049.78
2022-12-22T18:09:21.893Z,98060.59
2022-12-22T18:11:49.147Z,98049.19
2022-12-22T18:14:15.936Z,98050.88
2022-12-22T18:16:44.082Z,98057.28
2022-12-22T18:19:10.808Z,98052.13
2022-12-22T18:21:37.953Z,98047.81
2022-12-22T18:24:04.897Z,98035.47
2022-12-22T18:26:31.949Z,98043.94
2022-12-22T18:28:58.917Z,98033.06
2022-12-22T18:31:26.038Z,98039.91
2022-12-22T18:33:52.883Z,98042.78
2022-12-22T18:36:33.130Z,98039.72
2022-12-22T18:39:01.639Z,98043.31
2022-12-22T18:41:32.959Z,98042.50
2022-12-22T18:43:59.624Z,98043.91
2022-12-22T18:46:26.366Z,98043.06
2022-12-22T18:48:55.208Z,98046.66
2022-12-22T18:51:25.688Z,98045.69
2022-12-22T18:53:54.582Z,98035.88
2022-12-22T18:56:21.554Z,98040.41
2022-12-22T18:58:48.517Z,98028.91
2022-12-22T19:01:23.855Z,98027.94
2022-12-22T19:03:54.366Z,98026.28
2022-12-22T19:06:22.866Z,98018.38
2022-12-22T19:08:50.127Z,98022.69
2022-12-22T19:11:21.437Z,98007.81
2022-12-22T19:13:51.235Z,98005.88
2022-12-22T19:16:21.131Z,98010.47
2022-12-22T19:18:47.776Z,98002.25
2022-12-22T19:21:16.144Z,97994.50
2022-12-22T19:23:43.446Z,97994.63
2022-12-22T19:26:21.961Z,97994.63
2022-12-22T19:28:52.453Z,97990.31
2022-12-22T19:31:27.694Z,97983.38
2022-12-22T19:33:57.522Z,97981.44
2022-12-22T19:36:26.971Z,97978.41
2022-12-22T19:39:05.872Z,97983.66
2022-12-22T19:41:47.265Z,97970.59
2022-12-22T19:44:22.082Z,97969.75
2022-12-22T19:46:49.687Z,97962.03
2022-12-22T19:49:29.776Z,97962.59
2022-12-22T19:51:56.967Z,97958.28
2022-12-22T19:54:24.078Z,97952.31
2022-12-22T19:56:56.241Z,97953.13
2022-12-22T19:59:38.126Z,97953.97
2022-12-22T20:02:21.218Z,97945.09
2022-12-22T20:04:49.084Z,97946.63
2022-12-22T20:07:17.568Z,97941.78
2022-12-22T20:09:44.519Z,97927.06
2022-12-22T20:12:35.202Z,97927.22
2022-12-22T20:15:13.435Z,97923.59
2022-12-22T20:17:40.070Z,97927.63
2022-12-22T20:20:07.361Z,97927.06
2022-12-22T20:22:34.350Z,97925.13
2022-12-22T20:25:01.047Z,97927.91
2022-12-22T20:27:32.969Z,97915.66
2022-12-22T20:29:59.848Z,97916.25
2022-12-22T20:32:28.392Z,97928.34
2022-12-22T20:34:55.817Z,97919.44
2022-12-22T20:37:22.475Z,97915.72
2022-12-22T20:39:49.125Z,97914.88
2022-12-22T20:42:20.254Z,97912.09
2022-12-22T20:45:04.123Z,97910.44
2022-12-22T20:47:33.623Z,97908.34
2022-12-22T20:50:00.697Z,97906.84
2022-12-22T20:52:27.480Z,97910.16
2022-12-22T20:54:54.096Z,97912.66
2022-12-22T20:57:22.683Z,97905.59
2022-12-22T20:59:55.727Z,97890.72
2022-12-22T21:02:28.268Z,97895.16
2022-12-22T21:04:55.293Z,97892.13
2022-12-22T21:07:21.945Z,97882.41
2022-12-22T21:09:48.668Z,97880.59
2022-12-22T21:12:15.343Z,97879.78
2022-12-22T21:14:42.058Z,97872.84
2022-12-22T21:17:19.376Z,97867.56
2022-12-22T21:19:46.359Z,97863.25
2022-12-22T21:22:13.957Z,97857.13
2022-12-22T21:24:41.936Z,97854.22
2022-12-22T21:27:16.659Z,97856.03
2022-12-22T21:29:43.345Z,97855.75
2022-12-22T21:32:16.331Z,97854.38
2022-12-22T21:34:43.053Z,97859.66
2022-12-22T21:37:17.573Z,97855.22
2022-12-22T21:39:44.978Z,97854.09
2022-12-22T21:42:16.215Z,97852.69
2022-12-22T21:44:44.672Z,97838.53
2022-12-22T21:47:17.872Z,97842.16
2022-12-22T21:49:44.510Z,97839.38
2022-12-22T21:52:11.179Z,97828.97
2022-12-22T21:54:37.848Z,97829.66
2022-12-22T21:57:04.868Z,97835.75
2022-12-22T21:59:31.573Z,97830.34
2022-12-22T22:01:58.376Z,97826.72
2022-12-22T22:04:25.306Z,97826.03
2022-12-22T22:06:51.961Z,97828.28
2022-12-22T22:09:18.628Z,97827.44
2022-12-22T22:12:04.027Z,97827.16
2022-12-22T22:14:30.669Z,97818.56
2022-12-22T22:16:57.309Z,97813.28
2022-12-22T22:19:23.988Z,97808.84
2022-12-22T22:21:50.584Z,97807.16
2022-12-22T22:24:17.276Z,97802.72
2022-12-22T22:26:49.281Z,97801.72
2022-12-22T22:29:16.005Z,97799.38
2022-12-22T22:31:42.855Z,97798.28
2022-12-22T22:34:09.599Z,97796.63
2022-12-22T22:36:36.274Z,97796.63
2022-12-22T22:39:03.062Z,97790.50
2022-12-22T22:41:33.144Z,97786.91
2022-12-22T22:44:03.188Z,97787.75
2022-12-22T22:46:29.838Z,97784.41
2022-12-22T22:48:58.677Z,97777.44
2022-12-22T22:51:25.572Z,97779.25
2022-12-22T22:53:52.278Z,97786.19
2022-12-22T22:56:18.919Z,97781.88
2022-12-22T22:58:45.546Z,97780.63
2022-12-22T23:01:12.343Z,97778.81
2022-12-22T23:03:39.013Z,97788.28
2022-12-22T23:06:08.198Z,97782.72
2022-12-22T23:08:35.931Z,97777.44
2022-12-22T23:11:03.961Z,97773.81
2022-12-22T23:13:31.058Z,97762.31
2022-12-22T23:16:03.489Z,97769.50
2022-12-22T23:18:31.651Z,97764.41
2022-12-22T23:20:59.853Z,97760.63
2022-12-22T23:23:27.436Z,97764.94
2022-12-22T23:25:54.159Z,97763.97
2022-12-22T23:28:20.782Z,97758.16
2022-12-22T23:30:49.160Z,97758.00
2022-12-22T23:33:15.921Z,97757.03
2022-12-22T23:35:43.004Z,97749.25
2022-12-22T23:38:09.968Z,97758.81
2022-12-22T23:40:55.969Z,97739.38
2022-12-22T23:43:22.655Z,97745.78
2022-12-22T23:45:49.327Z,97736.88
2022-12-22T23:48:16.081Z,97740.50
2022-12-22T23:50:46.413Z,97743.00
2022-12-22T23:53:13.419Z,97751.34
2022-12-22T23:55:44.761Z,97751.03
2022-12-22T23:58:11.466Z,97754.94
